Time;durP1;ratioP1;P1;durP2;ratioP2;P2;SDS_P1;SDS_P2;PMS_P1;PMS_P2;Temp;Humidity;BMP_temperature;BMP_pressure;BME280_temperature;BME280_humidity;BME280_pressure;Samples;Min_cycle;Max_cycle;Signal;HPM_P1;HPM_P2
2022/07/20 00:00:52;;;;;;;0.40;0.20;;;23.30;60.00;;;;;;4936615;29;20395;-68
2022/07/20 00:03:18;;;;;;;0.40;0.20;;;23.30;60.10;;;;;;4935914;29;20444;-69
2022/07/20 00:05:45;;;;;;;0.40;0.30;;;23.40;60.10;;;;;;4936535;29;20396;-69
2022/07/20 00:08:11;;;;;;;0.70;0.50;;;23.20;59.70;;;;;;4935650;29;20392;-68
2022/07/20 00:13:22;;;;;;;0.47;0.32;;;23.20;60.80;;;;;;4935531;29;20929;-68
2022/07/20 00:15:48;;;;;;;0.40;0.30;;;23.20;60.40;;;;;;4936355;29;20418;-68
2022/07/20 00:18:14;;;;;;;0.40;0.20;;;23.10;60.00;;;;;;4935682;29;20395;-68
2022/07/20 00:20:40;;;;;;;0.40;0.20;;;23.10;59.90;;;;;;4935797;29;20828;-67
2022/07/20 00:23:06;;;;;;;0.40;0.30;;;23.10;59.60;;;;;;4933944;29;20400;-67
2022/07/20 00:25:32;;;;;;;0.40;0.20;;;23.00;60.00;;;;;;4935554;29;20748;-67
2022/07/20 00:27:58;;;;;;;0.40;0.20;;;22.90;60.30;;;;;;4935389;29;20832;-67
2022/07/20 00:30:24;;;;;;;0.40;0.30;;;23.00;60.00;;;;;;4934842;29;20931;-66
2022/07/20 00:32:49;;;;;;;0.40;0.30;;;23.00;61.30;;;;;;4935785;29;20400;-67
2022/07/20 00:35:16;;;;;;;0.40;0.30;;;23.00;60.60;;;;;;4935119;29;20451;-67
2022/07/20 00:37:43;;;;;;;0.40;0.30;;;22.80;60.30;;;;;;4935722;29;20392;-67
2022/07/20 00:40:11;;;;;;;1.30;1.00;;;22.80;60.60;;;;;;4935015;29;20474;-67
2022/07/20 00:42:37;;;;;;;0.40;0.30;;;22.90;60.70;;;;;;4935742;29;20423;-68
2022/07/20 00:45:05;;;;;;;0.60;0.60;;;22.90;60.80;;;;;;4935263;29;20395;-67
2022/07/20 00:47:31;;;;;;;0.40;0.30;;;22.80;60.80;;;;;;4934498;29;20758;-68
2022/07/20 00:49:57;;;;;;;0.50;0.40;;;22.80;61.00;;;;;;4935515;29;20474;-68
2022/07/20 00:52:23;;;;;;;0.60;0.40;;;22.80;61.10;;;;;;4934939;29;21002;-68
2022/07/20 00:54:50;;;;;;;0.40;0.30;;;22.80;62.50;;;;;;4935592;29;20485;-68
2022/07/20 00:57:16;;;;;;;0.40;0.20;;;22.80;60.90;;;;;;4934825;29;20392;-68
2022/07/20 00:59:42;;;;;;;0.40;0.30;;;22.80;60.20;;;;;;4935381;29;20427;-68
2022/07/20 01:02:08;;;;;;;0.50;0.50;;;22.80;61.10;;;;;;4934495;29;20427;-68
2022/07/20 01:04:34;;;;;;;0.40;0.20;;;22.70;60.80;;;;;;4935502;29;20450;-68
2022/07/20 01:07:00;;;;;;;0.40;0.30;;;22.60;62.10;;;;;;4935357;29;20383;-68
2022/07/20 01:09:26;;;;;;;0.40;0.30;;;22.70;61.40;;;;;;4934336;29;20419;-68
2022/07/20 01:11:52;;;;;;;0.40;0.20;;;22.60;61.50;;;;;;4935290;29;20407;-69
2022/07/20 01:14:18;;;;;;;0.40;0.30;;;22.60;62.00;;;;;;4934169;29;20383;-68
2022/07/20 01:16:44;;;;;;;0.40;0.22;;;22.60;63.50;;;;;;4933890;29;20396;-68
2022/07/20 01:19:10;;;;;;;0.40;0.30;;;22.60;62.00;;;;;;4934052;29;20396;-68
2022/07/20 01:21:40;;;;;;;0.40;0.20;;;22.60;62.40;;;;;;4935105;29;20409;-68
2022/07/20 01:24:11;;;;;;;0.70;0.50;;;22.50;62.60;;;;;;4934268;29;20752;-69
2022/07/20 01:26:42;;;;;;;0.40;0.20;;;22.50;62.10;;;;;;4935077;29;20793;-68
2022/07/20 01:29:09;;;;;;;0.40;0.20;;;22.50;63.10;;;;;;4933815;29;20480;-69
2022/07/20 01:31:35;;;;;;;0.50;0.40;;;22.40;62.70;;;;;;4934953;29;20400;-68
2022/07/20 01:34:01;;;;;;;0.40;0.20;;;22.50;62.60;;;;;;4934678;29;20419;-68
2022/07/20 01:36:27;;;;;;;0.40;0.30;;;22.40;62.40;;;;;;4934304;29;20388;-69
2022/07/20 01:38:52;;;;;;;0.40;0.30;;;22.50;62.70;;;;;;4934721;29;20819;-68
2022/07/20 01:41:18;;;;;;;0.40;0.20;;;22.50;62.20;;;;;;4933916;29;20745;-68
2022/07/20 01:43:44;;;;;;;0.40;0.30;;;22.50;62.00;;;;;;4934296;29;20393;-68
2022/07/20 01:46:10;;;;;;;0.40;0.30;;;22.50;63.20;;;;;;4933778;29;20466;-69
2022/07/20 01:48:36;;;;;;;0.40;0.20;;;22.50;62.30;;;;;;4934347;29;20392;-68
2022/07/20 01:51:02;;;;;;;0.60;0.50;;;22.50;60.90;;;;;;4934352;29;20507;-68
2022/07/20 01:53:27;;;;;;;0.40;0.30;;;22.50;62.00;;;;;;4933795;29;20403;-69
2022/07/20 01:55:53;;;;;;;0.40;0.20;;;22.50;62.30;;;;;;4934518;29;20419;-68
2022/07/20 01:58:19;;;;;;;0.40;0.20;;;22.40;63.60;;;;;;4933705;29;20392;-68
2022/07/20 02:00:46;;;;;;;0.40;0.20;;;22.50;61.90;;;;;;4934360;29;20474;-68
2022/07/20 02:03:11;;;;;;;0.40;0.30;;;22.50;61.10;;;;;;4933737;29;20395;-68
2022/07/20 02:05:37;;;;;;;0.40;0.30;;;22.60;61.00;;;;;;4934135;29;20387;-69
2022/07/20 02:08:03;;;;;;;0.40;0.30;;;22.60;61.60;;;;;;4917271;29;20459;-69
2022/07/20 02:10:29;;;;;;;0.40;0.30;;;22.30;63.30;;;;;;4933126;29;20419;-68
2022/07/20 02:12:54;;;;;;;0.50;0.40;;;22.40;62.80;;;;;;4934075;29;20887;-68
2022/07/20 02:18:10;;;;;;;0.40;0.30;;;22.30;63.00;;;;;;4934160;29;20553;-68
2022/07/20 02:20:36;;;;;;;0.40;0.30;;;22.30;62.70;;;;;;4933933;29;20403;-69
2022/07/20 02:23:05;;;;;;;0.40;0.30;;;22.40;64.20;;;;;;4933793;29;20399;-68
2022/07/20 02:25:30;;;;;;;0.40;0.30;;;22.40;64.70;;;;;;4933161;29;20498;-68
2022/07/20 02:27:56;;;;;;;1.00;1.00;;;22.30;64.20;;;;;;4933896;29;20482;-68
2022/07/20 02:30:22;;;;;;;0.40;0.28;;;22.10;64.20;;;;;;4932835;29;20419;-68
2022/07/20 02:32:48;;;;;;;0.40;0.20;;;22.20;64.80;;;;;;4933671;29;20399;-68
2022/07/20 02:35:14;;;;;;;0.40;0.30;;;22.10;64.80;;;;;;4932892;29;20401;-69
2022/07/20 02:37:40;;;;;;;0.50;0.40;;;22.10;65.00;;;;;;4933573;29;20872;-68
2022/07/20 02:40:06;;;;;;;0.40;0.30;;;22.20;65.80;;;;;;4933587;29;20399;-68
2022/07/20 02:42:32;;;;;;;0.70;0.60;;;22.20;65.40;;;;;;4933067;29;20888;-68
2022/07/20 02:44:57;;;;;;;1.20;1.10;;;22.10;66.50;;;;;;4933343;29;20540;-68
2022/07/20 02:47:23;;;;;;;0.40;0.30;;;22.20;64.90;;;;;;4932567;29;20428;-69
2022/07/20 02:49:48;;;;;;;0.40;0.30;;;22.20;65.00;;;;;;4933654;29;20511;-68
2022/07/20 02:52:14;;;;;;;0.40;0.30;;;22.20;65.20;;;;;;4932843;29;20399;-69
2022/07/20 02:54:40;;;;;;;0.40;0.30;;;22.00;65.40;;;;;;4933246;29;20421;-68
2022/07/20 02:57:05;;;;;;;0.40;0.30;;;22.00;66.70;;;;;;4933704;29;20402;-68
2022/07/20 02:59:31;;;;;;;0.50;0.30;;;22.00;67.60;;;;;;4932402;29;20949;-68
2022/07/20 03:01:57;;;;;;;0.40;0.40;;;22.00;66.30;;;;;;4933221;29;20421;-67
2022/07/20 03:04:22;;;;;;;0.40;0.30;;;22.10;66.40;;;;;;4932364;29;20398;-67
2022/07/20 03:06:48;;;;;;;0.40;0.27;;;22.10;66.50;;;;;;4933591;29;20387;-67
2022/07/20 03:09:13;;;;;;;0.40;0.30;;;22.00;65.70;;;;;;4932096;29;20399;-67
2022/07/20 03:11:39;;;;;;;0.50;0.40;;;22.00;66.40;;;;;;4932965;29;20459;-66
2022/07/20 03:14:05;;;;;;;0.40;0.30;;;21.90;66.50;;;;;;4933018;29;20489;-67
2022/07/20 03:16:31;;;;;;;0.50;0.40;;;21.80;66.80;;;;;;4932189;29;20475;-67
2022/07/20 03:18:56;;;;;;;0.40;0.30;;;21.80;66.30;;;;;;4933141;29;20451;-67
2022/07/20 03:21:22;;;;;;;2.50;0.50;;;21.80;66.70;;;;;;4932382;29;20456;-67
2022/07/20 03:23:48;;;;;;;0.40;0.30;;;21.80;67.20;;;;;;4933200;29;20391;-67
2022/07/20 03:26:13;;;;;;;0.40;0.30;;;21.80;67.40;;;;;;4932403;29;20478;-67
2022/07/20 03:28:39;;;;;;;0.40;0.30;;;21.90;67.00;;;;;;4933150;29;20920;-67
2022/07/20 03:31:05;;;;;;;0.52;0.40;;;21.90;67.50;;;;;;4933036;29;20623;-68
2022/07/20 03:33:30;;;;;;;0.40;0.30;;;21.80;66.90;;;;;;4915390;29;20407;-68
2022/07/20 03:35:56;;;;;;;0.40;0.20;;;21.90;68.10;;;;;;4933258;29;20474;-68
2022/07/20 03:38:22;;;;;;;1.20;0.70;;;21.90;67.40;;;;;;4932517;29;20474;-68
2022/07/20 03:40:47;;;;;;;0.40;0.20;;;21.90;68.50;;;;;;4933190;29;20404;-68
2022/07/20 03:43:13;;;;;;;1.50;0.90;;;21.80;68.50;;;;;;4932428;29;20404;-69
2022/07/20 03:45:38;;;;;;;0.40;0.20;;;21.90;67.60;;;;;;4932958;29;20439;-68
2022/07/20 03:48:05;;;;;;;0.60;0.60;;;21.90;67.80;;;;;;4933191;29;20478;-69
2022/07/20 03:50:30;;;;;;;0.50;0.40;;;22.00;66.90;;;;;;4932203;29;20412;-69
2022/07/20 03:52:56;;;;;;;0.40;0.20;;;22.00;66.60;;;;;;4933228;29;20923;-69
2022/07/20 03:55:21;;;;;;;0.50;0.40;;;22.00;65.90;;;;;;4932190;29;20793;-69
2022/07/20 03:57:47;;;;;;;0.90;0.60;;;22.10;66.40;;;;;;4935122;29;20494;-69
2022/07/20 04:00:13;;;;;;;0.40;0.30;;;22.00;66.70;;;;;;4936202;29;20406;-69
2022/07/20 04:02:39;;;;;;;0.60;0.60;;;22.00;66.80;;;;;;4936211;29;20388;-69
2022/07/20 04:05:05;;;;;;;0.40;0.20;;;22.10;65.70;;;;;;4936462;29;20419;-69
2022/07/20 04:07:31;;;;;;;0.40;0.20;;;22.20;66.70;;;;;;4935437;29;20996;-69
2022/07/20 04:09:57;;;;;;;0.40;0.20;;;22.30;66.30;;;;;;4936381;29;20416;-69
2022/07/20 04:12:24;;;;;;;0.40;0.20;;;22.40;64.20;;;;;;4935638;29;20402;-69
2022/07/20 04:14:52;;;;;;;0.40;0.30;;;22.50;65.20;;;;;;4936135;29;20868;-69
2022/07/20 04:17:19;;;;;;;0.50;0.40;;;22.50;64.80;;;;;;4935422;29;20380;-69
2022/07/20 04:19:45;;;;;;;0.77;0.77;;;22.50;64.30;;;;;;4935872;29;20824;-69
2022/07/20 04:22:11;;;;;;;0.40;0.20;;;22.40;64.30;;;;;;4936113;29;20471;-69
2022/07/20 04:24:37;;;;;;;0.40;0.30;;;22.40;66.10;;;;;;4935105;29;20538;-69
2022/07/20 04:27:03;;;;;;;0.60;0.60;;;22.40;65.40;;;;;;4936032;29;20395;-69
2022/07/20 04:29:29;;;;;;;0.47;0.43;;;22.50;64.60;;;;;;4930591;29;20450;-69
2022/07/20 04:31:57;;;;;;;0.50;0.50;;;22.50;65.80;;;;;;4927451;29;20425;-69
2022/07/20 04:34:23;;;;;;;0.40;0.30;;;22.40;65.80;;;;;;4915943;29;20912;-69
2022/07/20 04:36:49;;;;;;;0.40;0.30;;;22.40;66.20;;;;;;4916923;29;20796;-69
2022/07/20 04:39:14;;;;;;;0.40;0.20;;;22.40;67.00;;;;;;4922248;29;20403;-69
2022/07/20 04:41:40;;;;;;;0.40;0.30;;;22.40;67.50;;;;;;4926316;29;20920;-69
2022/07/20 04:44:06;;;;;;;0.80;0.70;;;22.50;67.70;;;;;;4923153;29;20408;-69
2022/07/20 04:46:32;;;;;;;0.40;0.20;;;22.50;66.40;;;;;;4924373;29;20389;-69
2022/07/20 04:48:58;;;;;;;0.40;0.30;;;22.60;65.20;;;;;;4916785;29;20895;-70
2022/07/20 04:51:24;;;;;;;0.60;0.50;;;22.70;66.00;;;;;;4915566;29;20417;-69
2022/07/20 04:53:50;;;;;;;0.40;0.30;;;22.70;65.40;;;;;;4916402;29;20409;-69
2022/07/20 04:56:16;;;;;;;0.40;0.20;;;22.70;66.00;;;;;;4916185;29;20397;-72
2022/07/20 04:58:42;;;;;;;0.40;0.20;;;22.80;65.30;;;;;;4915833;29;20412;-70
2022/07/20 05:01:07;;;;;;;0.40;0.20;;;22.80;66.50;;;;;;4916531;29;20393;-70
2022/07/20 05:03:33;;;;;;;0.40;0.30;;;22.70;67.60;;;;;;4933413;29;20890;-71
2022/07/20 05:05:59;;;;;;;0.40;0.30;;;22.80;66.10;;;;;;4935467;29;20980;-69
2022/07/20 05:08:24;;;;;;;0.40;0.20;;;22.90;65.80;;;;;;4933568;29;20730;-69
2022/07/20 05:10:50;;;;;;;0.40;0.30;;;22.80;68.70;;;;;;4934505;29;20435;-70
2022/07/20 05:13:16;;;;;;;0.40;0.30;;;22.80;66.90;;;;;;4934424;29;20404;-68
2022/07/20 05:15:41;;;;;;;0.40;0.20;;;22.70;70.20;;;;;;4934626;29;20388;-69
2022/07/20 05:18:07;;;;;;;0.50;0.40;;;22.80;68.50;;;;;;4935103;29;20793;-69
2022/07/20 05:20:33;;;;;;;0.40;0.20;;;22.80;69.50;;;;;;4934256;29;20964;-69
2022/07/20 05:22:58;;;;;;;0.50;0.50;;;23.00;67.20;;;;;;4934022;29;20511;-69
2022/07/20 05:25:24;;;;;;;0.40;0.30;;;23.00;69.30;;;;;;4934200;29;20400;-69
2022/07/20 05:27:49;;;;;;;0.40;0.30;;;23.00;68.90;;;;;;4935009;29;20482;-69
2022/07/20 05:30:15;;;;;;;0.40;0.20;;;23.00;70.30;;;;;;4934383;29;20430;-69
2022/07/20 05:32:41;;;;;;;0.40;0.20;;;23.00;71.40;;;;;;4932235;29;20453;-69
2022/07/20 05:35:08;;;;;;;1.50;0.70;;;23.10;70.00;;;;;;4935006;29;20438;-69
2022/07/20 05:37:34;;;;;;;0.40;0.20;;;23.10;70.10;;;;;;4933491;29;20520;-69
2022/07/20 05:40:00;;;;;;;0.40;0.30;;;23.10;71.70;;;;;;4932728;29;20538;-68
2022/07/20 05:42:25;;;;;;;0.40;0.20;;;23.20;70.60;;;;;;4932709;29;20426;-69
2022/07/20 05:44:51;;;;;;;0.40;0.30;;;23.30;70.90;;;;;;4934968;29;20426;-69
2022/07/20 05:47:17;;;;;;;0.40;0.30;;;23.40;71.10;;;;;;4933864;29;20411;-69
2022/07/20 05:49:47;;;;;;;0.90;0.90;;;23.40;71.60;;;;;;4933804;29;20434;-69
2022/07/20 05:52:13;;;;;;;0.40;0.30;;;23.60;69.70;;;;;;4933893;29;20408;-69
2022/07/20 05:54:39;;;;;;;0.40;0.20;;;23.70;70.10;;;;;;4912607;29;20441;-69
2022/07/20 05:57:04;;;;;;;0.40;0.20;;;23.70;71.40;;;;;;4915409;29;20460;-69
2022/07/20 05:59:30;;;;;;;0.50;0.30;;;23.70;73.80;;;;;;4913873;29;20885;-69
2022/07/20 06:01:56;;;;;;;0.50;0.38;;;23.80;72.10;;;;;;4914751;29;20405;-70
2022/07/20 06:04:21;;;;;;;0.40;0.30;;;24.10;71.40;;;;;;4913681;29;20517;-71
2022/07/20 06:06:47;;;;;;;0.40;0.20;;;24.00;73.90;;;;;;4914317;29;20528;-70
2022/07/20 06:09:13;;;;;;;0.40;0.20;;;24.10;71.90;;;;;;4914792;29;20385;-69
2022/07/20 06:11:38;;;;;;;0.40;0.30;;;24.20;72.20;;;;;;4913966;29;20743;-70
2022/07/20 06:14:04;;;;;;;0.40;0.20;;;24.20;72.00;;;;;;4914385;29;20401;-71
2022/07/20 06:16:30;;;;;;;0.40;0.30;;;24.40;71.10;;;;;;4921652;29;20407;-70
2022/07/20 06:18:56;;;;;;;1.00;0.90;;;24.40;71.80;;;;;;4934013;29;20455;-70
2022/07/20 06:21:21;;;;;;;0.40;0.23;;;24.40;74.80;;;;;;4919488;29;20742;-72
2022/07/20 06:23:47;;;;;;;0.90;0.90;;;24.30;75.80;;;;;;4914483;29;20409;-70
2022/07/20 06:26:12;;;;;;;0.60;0.50;;;24.60;71.90;;;;;;4915037;29;20851;-70
2022/07/20 06:28:38;;;;;;;0.40;0.30;;;24.60;74.30;;;;;;4913965;29;20408;-70
2022/07/20 06:31:06;;;;;;;0.40;0.20;;;24.60;74.40;;;;;;4914719;29;20421;-70
2022/07/20 06:33:32;;;;;;;0.40;0.20;;;24.70;76.50;;;;;;4913705;29;20413;-70
2022/07/20 06:35:57;;;;;;;0.60;0.50;;;24.80;72.60;;;;;;4914765;29;20400;-70
2022/07/20 06:38:23;;;;;;;0.40;0.20;;;24.90;73.30;;;;;;4912929;29;20485;-71
2022/07/20 06:40:49;;;;;;;0.57;0.52;;;24.90;73.80;;;;;;4914702;29;20716;-70
2022/07/20 06:43:15;;;;;;;0.70;0.70;;;25.10;74.40;;;;;;4914758;29;20425;-70
2022/07/20 06:45:40;;;;;;;0.40;0.23;;;25.30;71.40;;;;;;4914173;29;20437;-70
2022/07/20 06:48:06;;;;;;;3.60;0.80;;;25.40;73.50;;;;;;4914812;29;20873;-71
2022/07/20 06:50:32;;;;;;;0.40;0.30;;;25.80;72.40;;;;;;4912780;29;20762;-72
2022/07/20 06:52:57;;;;;;;0.98;0.80;;;26.10;72.20;;;;;;4914931;29;20393;-71
2022/07/20 06:55:23;;;;;;;0.60;0.50;;;27.00;68.30;;;;;;4928261;29;20432;-68
2022/07/20 06:57:49;;;;;;;0.40;0.30;;;27.60;65.70;;;;;;4933093;29;20383;-71
2022/07/20 07:00:15;;;;;;;0.40;0.20;;;27.90;65.30;;;;;;4933675;29;20403;-68
2022/07/20 07:02:40;;;;;;;0.50;0.50;;;28.20;62.70;;;;;;4932656;29;20391;-72
2022/07/20 07:05:07;;;;;;;0.40;0.20;;;28.20;63.30;;;;;;4933901;29;20399;-70
2022/07/20 07:07:32;;;;;;;0.40;0.28;;;28.30;62.80;;;;;;4932750;29;20392;-69
2022/07/20 07:09:58;;;;;;;0.90;0.90;;;28.60;61.00;;;;;;4933522;29;20914;-70
2022/07/20 07:12:24;;;;;;;0.40;0.30;;;28.50;60.50;;;;;;4933242;29;20451;-72
2022/07/20 07:14:50;;;;;;;0.40;0.20;;;28.60;60.50;;;;;;4933058;29;20929;-69
2022/07/20 07:17:16;;;;;;;0.40;0.30;;;28.60;60.30;;;;;;4933471;29;20403;-70
2022/07/20 07:19:42;;;;;;;0.40;0.20;;;28.60;60.20;;;;;;4932557;29;20399;-71
2022/07/20 07:22:08;;;;;;;0.40;0.30;;;28.60;60.80;;;;;;4933545;29;20423;-71
2022/07/20 07:24:34;;;;;;;0.70;0.70;;;28.70;60.30;;;;;;4932459;29;20404;-72
2022/07/20 07:26:59;;;;;;;0.60;0.50;;;28.70;60.60;;;;;;4933794;29;20715;-69
2022/07/20 07:29:26;;;;;;;0.60;0.50;;;28.70;60.50;;;;;;4931841;29;20395;-72
2022/07/20 07:31:53;;;;;;;0.60;0.60;;;28.80;59.80;;;;;;4936321;29;20399;-73
2022/07/20 07:34:19;;;;;;;0.70;0.70;;;28.80;60.00;;;;;;4936740;29;20407;-73
2022/07/20 07:36:47;;;;;;;0.50;0.50;;;28.70;60.50;;;;;;4936154;29;20401;-73
2022/07/20 07:39:13;;;;;;;0.40;0.30;;;28.80;61.30;;;;;;4936591;29;20482;-72
2022/07/20 07:41:39;;;;;;;0.47;0.40;;;29.00;59.90;;;;;;4936144;29;20479;-74
2022/07/20 07:44:05;;;;;;;0.40;0.30;;;28.80;60.80;;;;;;4936933;29;20399;-72
2022/07/20 07:46:30;;;;;;;0.70;0.70;;;28.80;60.60;;;;;;4938076;29;20404;-77
2022/07/20 07:48:56;;;;;;;1.20;1.00;;;28.90;61.20;;;;;;4943989;29;20400;-76
2022/07/20 07:51:22;;;;;;;0.50;0.50;;;29.00;62.60;;;;;;4935293;29;20502;-76
2022/07/20 07:53:47;;;;;;;0.40;0.30;;;29.10;61.60;;;;;;4934822;29;21242;-73
2022/07/20 07:56:13;;;;;;;1.60;1.50;;;29.30;61.70;;;;;;4936284;29;20812;-70
2022/07/20 07:58:39;;;;;;;0.40;0.20;;;29.30;62.70;;;;;;4935739;29;20406;-69
2022/07/20 08:01:04;;;;;;;0.40;0.20;;;29.40;62.10;;;;;;4936760;29;20388;-69
2022/07/20 08:03:30;;;;;;;0.50;0.40;;;29.70;61.30;;;;;;4935858;29;20391;-69
2022/07/20 08:05:56;;;;;;;0.40;0.40;;;29.80;61.60;;;;;;4936311;29;20395;-69
2022/07/20 08:08:22;;;;;;;1.10;1.00;;;30.00;61.40;;;;;;4936433;29;20388;-69
2022/07/20 08:10:47;;;;;;;0.40;0.30;;;30.20;61.50;;;;;;4935731;29;20415;-68
2022/07/20 08:13:13;;;;;;;0.40;0.20;;;30.10;61.30;;;;;;4936031;29;20455;-69
2022/07/20 08:15:40;;;;;;;0.40;0.20;;;30.20;61.20;;;;;;4935606;29;20392;-70
2022/07/20 08:18:06;;;;;;;1.80;0.80;;;30.20;61.50;;;;;;4936302;29;20380;-70
2022/07/20 08:20:32;;;;;;;1.20;1.10;;;30.30;62.10;;;;;;4935531;29;20516;-70
2022/07/20 08:22:58;;;;;;;0.60;0.50;;;30.50;62.00;;;;;;4936195;29;20458;-69
2022/07/20 08:25:24;;;;;;;0.50;0.40;;;30.50;61.90;;;;;;4936336;29;20870;-69
2022/07/20 08:27:50;;;;;;;0.50;0.40;;;30.50;61.80;;;;;;4935348;29;20654;-69
2022/07/20 08:30:16;;;;;;;0.40;0.20;;;30.50;61.50;;;;;;4936197;29;20455;-69
2022/07/20 08:32:42;;;;;;;0.70;0.70;;;30.50;62.80;;;;;;4935306;29;20399;-70
2022/07/20 08:35:10;;;;;;;0.40;0.40;;;30.20;62.80;;;;;;4936005;29;20394;-69
2022/07/20 08:37:37;;;;;;;0.40;0.30;;;30.20;64.00;;;;;;4935291;29;20395;-70
2022/07/20 08:40:03;;;;;;;0.40;0.30;;;30.20;64.00;;;;;;4935817;29;20399;-68
2022/07/20 08:42:29;;;;;;;0.40;0.30;;;30.00;65.50;;;;;;4934920;29;20390;-70
2022/07/20 08:44:55;;;;;;;0.60;0.60;;;30.10;65.90;;;;;;4935043;29;20407;-69
2022/07/20 08:47:24;;;;;;;0.40;0.30;;;29.90;67.30;;;;;;4935833;29;20499;-69
2022/07/20 08:49:50;;;;;;;0.63;0.63;;;29.90;67.70;;;;;;4934874;29;21172;-68
2022/07/20 08:52:17;;;;;;;3.40;1.40;;;30.00;68.40;;;;;;4935707;29;20399;-69
2022/07/20 08:54:43;;;;;;;0.40;0.30;;;30.10;67.90;;;;;;4934737;29;20431;-70
2022/07/20 08:57:10;;;;;;;1.20;1.20;;;30.20;67.30;;;;;;4935411;29;20888;-69
2022/07/20 08:59:36;;;;;;;0.40;0.30;;;30.20;67.30;;;;;;4934714;29;20395;-69
2022/07/20 09:02:05;;;;;;;1.20;0.80;;;30.10;67.30;;;;;;4935517;29;20415;-69
2022/07/20 09:04:31;;;;;;;0.40;0.20;;;30.20;67.40;;;;;;4934982;29;20916;-69
2022/07/20 09:06:57;;;;;;;0.40;0.22;;;30.00;69.20;;;;;;4935029;29;20384;-69
2022/07/20 09:09:23;;;;;;;1.63;1.50;;;30.20;69.10;;;;;;4934482;29;21331;-69
2022/07/20 09:11:50;;;;;;;0.40;0.30;;;30.40;68.70;;;;;;4931530;29;20411;-69
2022/07/20 09:14:36;;;;;;;0.40;0.20;;;30.30;68.50;;;;;;4932114;29;20435;-69
2022/07/20 09:17:21;;;;;;;1.10;1.00;;;30.40;68.60;;;;;;4934272;29;20403;-70
2022/07/20 09:20:08;;;;;;;0.80;0.80;;;30.40;68.80;;;;;;4934332;29;20408;-69
2022/07/20 09:22:37;;;;;;;0.50;0.50;;;30.40;68.70;;;;;;4934840;29;20911;-69
2022/07/20 09:25:15;;;;;;;0.40;0.30;;;30.50;68.90;;;;;;4934330;29;20415;-69
2022/07/20 09:27:42;;;;;;;0.70;0.70;;;30.40;69.10;;;;;;4932716;29;20935;-69
2022/07/20 09:30:14;;;;;;;1.00;1.00;;;30.30;69.30;;;;;;4938411;29;20413;-68
2022/07/20 09:32:52;;;;;;;0.90;0.90;;;30.20;69.10;;;;;;4936034;29;20399;-69
2022/07/20 09:35:20;;;;;;;0.63;0.38;;;30.10;69.30;;;;;;4933860;29;20415;-69
2022/07/20 09:37:46;;;;;;;0.57;0.57;;;30.20;69.40;;;;;;4932253;29;20407;-69
2022/07/20 09:40:12;;;;;;;1.10;0.40;;;30.20;69.80;;;;;;4934355;29;20408;-69
2022/07/20 09:42:39;;;;;;;2.30;0.80;;;30.40;69.60;;;;;;4933711;29;20541;-68
2022/07/20 09:45:23;;;;;;;0.77;0.68;;;30.40;69.90;;;;;;4934451;29;20757;-69
2022/07/20 09:48:12;;;;;;;0.60;0.50;;;30.20;70.50;;;;;;4933327;29;20462;-70
2022/07/20 09:50:43;;;;;;;0.90;0.90;;;30.20;71.30;;;;;;4933411;29;20799;-68
2022/07/20 09:53:10;;;;;;;0.40;0.22;;;30.30;70.70;;;;;;4918017;29;20880;-69
2022/07/20 09:55:37;;;;;;;0.70;0.70;;;30.40;71.00;;;;;;4933654;29;20427;-69
2022/07/20 09:58:05;;;;;;;0.93;0.93;;;30.40;70.30;;;;;;4934507;29;20402;-69
2022/07/20 10:00:32;;;;;;;1.50;1.40;;;30.30;71.60;;;;;;4933551;29;20410;-69
2022/07/20 10:03:00;;;;;;;1.60;1.00;;;30.30;71.70;;;;;;4933680;29;20683;-69
2022/07/20 10:05:33;;;;;;;0.45;0.38;;;30.50;71.10;;;;;;4932796;29;20960;-69
2022/07/20 10:08:05;;;;;;;0.70;0.70;;;30.70;70.50;;;;;;4932863;29;20426;-67
2022/07/20 10:10:33;;;;;;;0.80;0.80;;;30.90;69.80;;;;;;4933984;29;20775;-67
2022/07/20 10:12:59;;;;;;;0.90;0.90;;;30.90;68.10;;;;;;4933445;29;21318;-67
2022/07/20 10:15:56;;;;;;;0.43;0.32;;;31.00;68.60;;;;;;4933675;29;20927;-67
2022/07/20 10:18:22;;;;;;;0.50;0.50;;;31.20;69.90;;;;;;4933316;29;20907;-66
2022/07/20 10:20:49;;;;;;;0.50;0.40;;;30.70;68.60;;;;;;4932995;29;20481;-68
2022/07/20 10:23:14;;;;;;;0.40;0.30;;;30.50;69.00;;;;;;4932806;29;20402;-67
2022/07/20 10:25:45;;;;;;;1.00;0.90;;;30.10;70.80;;;;;;4931265;29;21074;-71
2022/07/20 10:28:23;;;;;;;0.70;0.70;;;29.70;76.40;;;;;;4933320;29;20422;-70
2022/07/20 10:30:56;;;;;;;0.90;0.60;;;29.40;79.20;;;;;;4932414;29;20419;-71
2022/07/20 10:33:23;;;;;;;0.50;0.30;;;28.80;84.60;;;;;;4930796;29;20796;-70
2022/07/20 10:35:50;;;;;;;0.50;0.50;;;28.50;83.60;;;;;;4932335;29;20484;-70
2022/07/20 10:38:20;;;;;;;0.50;0.43;;;28.70;79.00;;;;;;4933901;29;20399;-70
2022/07/20 10:44:22;;;;;;;0.60;0.60;;;29.40;75.20;;;;;;4933076;29;20403;-69
2022/07/20 10:46:49;;;;;;;0.40;0.40;;;29.80;73.40;;;;;;4932950;29;20387;-69
2022/07/20 10:49:16;;;;;;;0.57;0.57;;;29.80;72.50;;;;;;4933728;29;20407;-69
2022/07/20 10:51:42;;;;;;;0.60;0.60;;;29.80;73.00;;;;;;4932758;29;20435;-69
2022/07/20 10:54:32;;;;;;;0.47;0.47;;;29.60;71.80;;;;;;4933504;29;20478;-69
2022/07/20 10:56:59;;;;;;;0.40;0.30;;;29.50;71.20;;;;;;4933100;29;20396;-70
2022/07/20 10:59:25;;;;;;;0.40;0.40;;;29.40;71.50;;;;;;4933395;29;20387;-70
2022/07/20 11:01:52;;;;;;;0.80;0.80;;;29.00;81.10;;;;;;4931383;29;20404;-70
2022/07/20 11:04:20;;;;;;;0.85;0.85;;;27.50;99.90;;;;;;4932397;29;20836;-68
2022/07/20 11:06:46;;;;;;;1.20;1.10;;;25.90;99.90;;;;;;4935811;29;20391;-69
2022/07/20 11:09:12;;;;;;;0.90;0.90;;;24.50;99.90;;;;;;4938654;29;20406;-69
2022/07/20 11:11:38;;;;;;;0.60;0.60;;;23.90;99.90;;;;;;4938279;29;20471;-69
2022/07/20 11:14:06;;;;;;;0.60;0.60;;;23.60;99.90;;;;;;4937649;29;20404;-70
2022/07/20 11:16:37;;;;;;;0.40;0.20;;;23.40;99.90;;;;;;4938589;29;20474;-69
2022/07/20 11:19:04;;;;;;;0.70;0.70;;;23.50;99.90;;;;;;4937869;29;20403;-69
2022/07/20 11:21:39;;;;;;;0.63;0.63;;;23.50;99.90;;;;;;4938419;29;20407;-69
2022/07/20 11:24:26;;;;;;;1.40;1.30;;;23.50;99.90;;;;;;4938074;29;20407;-69
2022/07/20 11:26:53;;;;;;;2.20;1.00;;;23.40;99.90;;;;;;4935428;29;20403;-69
2022/07/20 11:29:19;;;;;;;0.47;0.47;;;23.40;99.90;;;;;;4937077;29;20766;-69
2022/07/20 11:31:44;;;;;;;0.70;0.70;;;23.30;99.90;;;;;;4937169;29;20453;-69
2022/07/20 11:34:13;;;;;;;1.00;0.60;;;23.40;99.90;;;;;;4920928;29;20904;-69
2022/07/20 11:36:38;;;;;;;1.00;1.00;;;23.40;99.90;;;;;;4938183;29;20395;-69
2022/07/20 11:39:07;;;;;;;0.80;0.80;;;23.40;99.90;;;;;;4921019;29;20397;-69
2022/07/20 11:41:40;;;;;;;0.40;0.40;;;23.60;99.90;;;;;;4937225;29;20438;-70
2022/07/20 11:44:08;;;;;;;0.40;0.30;;;23.80;99.90;;;;;;4938541;29;20399;-70
2022/07/20 11:46:40;;;;;;;0.50;0.40;;;24.00;99.90;;;;;;4928994;29;20880;-70
2022/07/20 11:49:10;;;;;;;0.52;0.47;;;24.60;99.90;;;;;;4938066;29;20411;-70
2022/07/20 11:51:37;;;;;;;1.60;1.50;;;24.70;99.90;;;;;;4938143;29;20426;-70
2022/07/20 11:54:07;;;;;;;1.40;1.30;;;25.00;99.90;;;;;;4937091;29;20967;-70
2022/07/20 11:56:34;;;;;;;0.40;0.30;;;25.20;99.90;;;;;;4938179;29;20418;-71
2022/07/20 11:59:02;;;;;;;0.47;0.47;;;26.10;99.90;;;;;;4937659;29;20391;-69
2022/07/20 12:01:30;;;;;;;0.50;0.40;;;26.80;99.90;;;;;;4937900;29;20474;-70
2022/07/20 12:04:05;;;;;;;0.40;0.30;;;27.40;99.90;;;;;;4920187;29;20841;-69
2022/07/20 12:06:33;;;;;;;0.40;0.20;;;28.20;99.90;;;;;;4937777;29;20923;-70
2022/07/20 12:09:19;;;;;;;1.20;1.10;;;28.80;99.90;;;;;;4934913;29;20408;-70
2022/07/20 12:12:02;;;;;;;2.00;1.90;;;28.50;99.90;;;;;;4936033;29;21832;-69
2022/07/20 12:14:37;;;;;;;1.00;1.00;;;28.50;99.90;;;;;;4937418;29;20404;-70
2022/07/20 12:17:20;;;;;;;0.60;0.50;;;29.30;99.90;;;;;;4935701;29;20402;-70
2022/07/20 12:19:49;;;;;;;0.90;0.70;;;29.00;99.90;;;;;;4934568;29;20451;-70
2022/07/20 12:22:20;;;;;;;1.60;1.50;;;28.40;99.90;;;;;;4934997;29;20395;-70
2022/07/20 12:24:53;;;;;;;0.80;0.70;;;28.10;99.90;;;;;;4934465;29;20474;-69
2022/07/20 12:27:20;;;;;;;0.50;0.50;;;28.10;99.90;;;;;;4935682;29;20752;-70
2022/07/20 12:29:46;;;;;;;0.40;0.30;;;28.60;99.90;;;;;;4934113;29;20424;-70
2022/07/20 12:32:15;;;;;;;1.00;0.40;;;29.10;99.90;;;;;;4935447;29;20403;-70
2022/07/20 12:34:54;;;;;;;0.40;0.30;;;28.40;99.90;;;;;;4933633;29;20925;-70
2022/07/20 12:37:21;;;;;;;0.70;0.70;;;28.20;99.90;;;;;;4935106;29;20396;-70
2022/07/20 12:39:53;;;;;;;0.40;0.40;;;28.60;99.90;;;;;;4913865;29;20419;-70
2022/07/20 12:42:21;;;;;;;1.10;1.10;;;29.50;99.90;;;;;;4932971;29;20422;-69
2022/07/20 12:44:47;;;;;;;0.40;0.30;;;30.50;99.90;;;;;;4935128;29;20904;-70
2022/07/20 12:47:15;;;;;;;0.40;0.30;;;31.10;99.40;;;;;;4935503;29;20752;-71
2022/07/20 12:49:41;;;;;;;1.87;1.77;;;30.60;99.90;;;;;;4934441;29;20451;-71
2022/07/20 12:52:07;;;;;;;3.90;1.00;;;31.40;95.00;;;;;;4916076;29;20393;-71
2022/07/20 12:54:33;;;;;;;0.47;0.35;;;31.10;92.30;;;;;;4934275;29;20435;-71
2022/07/20 12:56:59;;;;;;;1.50;1.40;;;30.70;96.90;;;;;;4934922;29;20482;-70